EGBJ/GLO METAR and TAF weather

Enter ICAO airport designator
Station Type Date Time Source
EGBJ METAR 2020/11/27 14:50 UTC NOAA

EGBJ 271450Z 06002KT 1000 R27/P1350 FG VV/// 03/03 Q1018


Station Type Date Time Source
EGBJ Decoded METAR 2020/11/27 14:50 UTC NOAA

Staverton Private , United Kingdom (EGBJ) 51-54N 002-10W
Nov 27, 2020 - 09:50 AM EST / 2020.11.27 1450 UTC
Wind: from the ENE (060 degrees) at 2 MPH (2 KT):0
Visibility: less than 1 mile:0
Sky conditions: obscured
Weather: fog
Temperature: 37 F (3 C)
Dew Point: 37 F (3 C)
Relative Humidity: 100%
Pressure (altimeter): 30.06 in. Hg (1018 hPa)
ob: EGBJ 271450Z 06002KT 1000 R27/P1350 FG VV/// 03/03 Q1018
cycle: 15

Station Type Date Time Source
EGBJ TAF UTC NOAA

Error!

Example: see airport list